KRDR/RDR METAR and TAF weather

Enter ICAO airport designator
Station Type Date Time Source
KRDR METAR 2019/06/16 20:56 UTC NOAA

KRDR 162056Z AUTO 00000KT 10SM FEW012 FEW018 SCT023 BKN037 OVC047 16/15 A2985 RMK AO2 SLP114 T01610150 55002 $


Station Type Date Time Source
KRDR Decoded METAR 2019/06/16 20:56 UTC NOAA

Grand Forks Air Force Base, ND, United States (KRDR) 47-58N 097-24W 278M
Jun 16, 2019 - 04:56 PM EDT / 2019.06.16 2056 UTC
Wind: Calm:0
Visibility: 10 mile(s):0
Sky conditions: overcast
Temperature: 61.0 F (16.1 C)
Dew Point: 59.0 F (15.0 C)
Relative Humidity: 93%
Pressure (altimeter): 29.85 in. Hg (1010 hPa)
Pressure tendency: 0.01 inches (0.2 hPa) lower than three hours ago
ob: KRDR 162056Z AUTO 00000KT 10SM FEW012 FEW018 SCT023 BKN037 OVC047 16/15 A2985 RMK AO2 SLP114 T01610150 55002
cycle: 21

Station Type Date Time Source
KRDR TAF 2019/06/16 19:14 UTC NOAA

TAF
AMD KRDR 161902Z 1619/1724 08009KT 9999 OVC015 QNH2980INS
BECMG 1619/1621 34009KT 9999 BKN025 QNH2987INS
BECMG 1702/1703 34009KT 9999 BKN020 QNH2992INS
BECMG 1720/1721 34009KT 9999 SCT030 QNH2997INS TX18/1622Z TN12/1711Z

Example: see airport list